sensor_id;sensor_type;location;lat;lon;timestamp;temperature;humidity
12977;DHT22;6553;48.412;9.514;2023-03-14T00:02:07;19.70;52.90
12977;DHT22;6553;48.412;9.514;2023-03-14T00:04:34;19.70;52.90
12977;DHT22;6553;48.412;9.514;2023-03-14T00:07:00;19.70;53.00
12977;DHT22;6553;48.412;9.514;2023-03-14T00:09:26;19.70;53.00
12977;DHT22;6553;48.412;9.514;2023-03-14T00:11:55;19.70;52.90
12977;DHT22;6553;48.412;9.514;2023-03-14T00:14:22;19.70;52.90
12977;DHT22;6553;48.412;9.514;2023-03-14T00:16:48;19.70;53.00
12977;DHT22;6553;48.412;9.514;2023-03-14T00:19:15;19.60;52.90
12977;DHT22;6553;48.412;9.514;2023-03-14T00:21:41;19.70;53.00
12977;DHT22;6553;48.412;9.514;2023-03-14T00:24:07;19.60;52.80
12977;DHT22;6553;48.412;9.514;2023-03-14T00:26:33;19.60;52.90
12977;DHT22;6553;48.412;9.514;2023-03-14T00:28:59;19.60;52.90
12977;DHT22;6553;48.412;9.514;2023-03-14T00:31:25;19.70;53.00
12977;DHT22;6553;48.412;9.514;2023-03-14T00:33:52;19.70;53.00
12977;DHT22;6553;48.412;9.514;2023-03-14T00:36:20;19.60;52.80
12977;DHT22;6553;48.412;9.514;2023-03-14T00:38:48;19.60;52.80
12977;DHT22;6553;48.412;9.514;2023-03-14T00:41:24;19.60;52.80
12977;DHT22;6553;48.412;9.514;2023-03-14T00:43:51;19.60;52.80
12977;DHT22;6553;48.412;9.514;2023-03-14T00:46:17;19.60;52.80
12977;DHT22;6553;48.412;9.514;2023-03-14T00:48:45;19.60;52.90
12977;DHT22;6553;48.412;9.514;2023-03-14T00:51:11;19.70;52.90
12977;DHT22;6553;48.412;9.514;2023-03-14T00:53:42;19.60;52.80
12977;DHT22;6553;48.412;9.514;2023-03-14T00:56:11;19.60;52.80
12977;DHT22;6553;48.412;9.514;2023-03-14T00:58:38;19.60;52.90
12977;DHT22;6553;48.412;9.514;2023-03-14T01:01:09;19.60;52.80
12977;DHT22;6553;48.412;9.514;2023-03-14T01:03:39;19.60;52.80
12977;DHT22;6553;48.412;9.514;2023-03-14T01:06:13;19.60;52.80
12977;DHT22;6553;48.412;9.514;2023-03-14T01:08:42;19.60;52.80
12977;DHT22;6553;48.412;9.514;2023-03-14T01:11:10;19.60;52.80
12977;DHT22;6553;48.412;9.514;2023-03-14T01:13:39;19.60;52.80
12977;DHT22;6553;48.412;9.514;2023-03-14T01:16:07;19.60;52.90
12977;DHT22;6553;48.412;9.514;2023-03-14T01:18:38;19.60;52.80
12977;DHT22;6553;48.412;9.514;2023-03-14T01:21:20;19.60;52.80
12977;DHT22;6553;48.412;9.514;2023-03-14T01:23:49;19.60;52.80
12977;DHT22;6553;48.412;9.514;2023-03-14T01:26:17;19.60;52.80
12977;DHT22;6553;48.412;9.514;2023-03-14T01:28:46;19.60;52.90
12977;DHT22;6553;48.412;9.514;2023-03-14T01:31:13;19.60;52.80
12977;DHT22;6553;48.412;9.514;2023-03-14T01:33:40;19.60;52.80
12977;DHT22;6553;48.412;9.514;2023-03-14T01:36:09;19.60;52.80
12977;DHT22;6553;48.412;9.514;2023-03-14T01:38:37;19.60;52.80
12977;DHT22;6553;48.412;9.514;2023-03-14T01:41:09;19.60;52.80
12977;DHT22;6553;48.412;9.514;2023-03-14T01:43:42;19.60;52.80
12977;DHT22;6553;48.412;9.514;2023-03-14T01:46:24;19.60;52.90
12977;DHT22;6553;48.412;9.514;2023-03-14T01:49:30;19.60;52.90
12977;DHT22;6553;48.412;9.514;2023-03-14T01:57:32;19.50;52.80
12977;DHT22;6553;48.412;9.514;2023-03-14T02:00:14;19.60;52.90
12977;DHT22;6553;48.412;9.514;2023-03-14T02:02:46;19.50;52.80
12977;DHT22;6553;48.412;9.514;2023-03-14T02:05:19;19.60;52.80
12977;DHT22;6553;48.412;9.514;2023-03-14T02:07:58;19.60;52.80
12977;DHT22;6553;48.412;9.514;2023-03-14T02:10:37;19.50;52.80
12977;DHT22;6553;48.412;9.514;2023-03-14T02:13:07;19.60;52.80
12977;DHT22;6553;48.412;9.514;2023-03-14T02:15:57;19.50;52.80
12977;DHT22;6553;48.412;9.514;2023-03-14T02:18:50;19.60;52.80
12977;DHT22;6553;48.412;9.514;2023-03-14T02:27:36;19.50;52.80
12977;DHT22;6553;48.412;9.514;2023-03-14T02:30:10;19.60;52.90
12977;DHT22;6553;48.412;9.514;2023-03-14T02:32:44;19.50;52.80
12977;DHT22;6553;48.412;9.514;2023-03-14T02:35:18;19.50;52.80
12977;DHT22;6553;48.412;9.514;2023-03-14T02:37:51;19.50;52.80
12977;DHT22;6553;48.412;9.514;2023-03-14T02:40:23;19.50;52.80
12977;DHT22;6553;48.412;9.514;2023-03-14T02:42:51;19.50;52.80
12977;DHT22;6553;48.412;9.514;2023-03-14T02:47:49;19.50;53.40
12977;DHT22;6553;48.412;9.514;2023-03-14T02:50:27;19.50;52.80
12977;DHT22;6553;48.412;9.514;2023-03-14T02:52:56;19.50;52.80
12977;DHT22;6553;48.412;9.514;2023-03-14T02:55:23;19.50;52.80
12977;DHT22;6553;48.412;9.514;2023-03-14T02:57:54;19.50;52.80
12977;DHT22;6553;48.412;9.514;2023-03-14T03:00:20;19.50;52.80
12977;DHT22;6553;48.412;9.514;2023-03-14T03:02:46;19.50;52.80
12977;DHT22;6553;48.412;9.514;2023-03-14T03:05:14;19.50;52.80
12977;DHT22;6553;48.412;9.514;2023-03-14T03:07:40;19.50;52.80
12977;DHT22;6553;48.412;9.514;2023-03-14T03:10:06;19.50;52.80
12977;DHT22;6553;48.412;9.514;2023-03-14T03:12:32;19.50;52.80
12977;DHT22;6553;48.412;9.514;2023-03-14T03:14:58;19.50;52.90
12977;DHT22;6553;48.412;9.514;2023-03-14T03:17:24;19.50;52.80
12977;DHT22;6553;48.412;9.514;2023-03-14T03:19:49;19.50;52.80
12977;DHT22;6553;48.412;9.514;2023-03-14T03:22:16;19.50;52.80
12977;DHT22;6553;48.412;9.514;2023-03-14T03:24:42;19.50;52.90
12977;DHT22;6553;48.412;9.514;2023-03-14T03:27:08;19.50;52.90
12977;DHT22;6553;48.412;9.514;2023-03-14T03:29:34;19.50;52.90
12977;DHT22;6553;48.412;9.514;2023-03-14T03:32:00;19.50;52.90
12977;DHT22;6553;48.412;9.514;2023-03-14T03:34:27;19.50;52.80
12977;DHT22;6553;48.412;9.514;2023-03-14T03:36:58;19.50;52.90
12977;DHT22;6553;48.412;9.514;2023-03-14T03:39:25;19.50;52.90
12977;DHT22;6553;48.412;9.514;2023-03-14T03:41:51;19.50;53.00
12977;DHT22;6553;48.412;9.514;2023-03-14T03:44:18;19.50;52.90
12977;DHT22;6553;48.412;9.514;2023-03-14T03:46:44;19.50;52.80
12977;DHT22;6553;48.412;9.514;2023-03-14T03:49:09;19.40;52.80
12977;DHT22;6553;48.412;9.514;2023-03-14T03:51:36;19.50;52.90
12977;DHT22;6553;48.412;9.514;2023-03-14T03:54:02;19.50;52.90
12977;DHT22;6553;48.412;9.514;2023-03-14T03:56:31;19.40;52.80
12977;DHT22;6553;48.412;9.514;2023-03-14T03:58:57;19.50;52.90
12977;DHT22;6553;48.412;9.514;2023-03-14T04:01:23;19.40;52.80
12977;DHT22;6553;48.412;9.514;2023-03-14T04:03:52;19.40;52.80
12977;DHT22;6553;48.412;9.514;2023-03-14T04:06:19;19.50;52.90
12977;DHT22;6553;48.412;9.514;2023-03-14T04:08:47;19.50;52.90
12977;DHT22;6553;48.412;9.514;2023-03-14T04:11:45;19.50;52.90
12977;DHT22;6553;48.412;9.514;2023-03-14T04:14:23;19.40;52.80
12977;DHT22;6553;48.412;9.514;2023-03-14T04:16:59;19.40;52.80
12977;DHT22;6553;48.412;9.514;2023-03-14T04:19:25;19.50;52.90
12977;DHT22;6553;48.412;9.514;2023-03-14T04:21:53;19.40;52.80
12977;DHT22;6553;48.412;9.514;2023-03-14T04:24:20;19.50;52.90
12977;DHT22;6553;48.412;9.514;2023-03-14T04:26:48;19.40;52.80
12977;DHT22;6553;48.412;9.514;2023-03-14T04:29:14;19.50;52.90
12977;DHT22;6553;48.412;9.514;2023-03-14T04:31:42;19.40;52.80
12977;DHT22;6553;48.412;9.514;2023-03-14T04:34:09;19.40;52.80
12977;DHT22;6553;48.412;9.514;2023-03-14T04:36:39;19.40;52.80
12977;DHT22;6553;48.412;9.514;2023-03-14T04:39:08;19.50;52.90
12977;DHT22;6553;48.412;9.514;2023-03-14T04:41:37;19.50;53.50
12977;DHT22;6553;48.412;9.514;2023-03-14T04:44:04;19.50;52.90
12977;DHT22;6553;48.412;9.514;2023-03-14T04:46:30;19.40;52.80
12977;DHT22;6553;48.412;9.514;2023-03-14T04:48:55;19.50;52.90
12977;DHT22;6553;48.412;9.514;2023-03-14T04:51:23;19.40;52.80
12977;DHT22;6553;48.412;9.514;2023-03-14T04:53:53;19.40;52.80
12977;DHT22;6553;48.412;9.514;2023-03-14T04:56:19;19.40;52.80
12977;DHT22;6553;48.412;9.514;2023-03-14T04:58:45;19.40;52.80
12977;DHT22;6553;48.412;9.514;2023-03-14T05:01:15;19.40;52.80
12977;DHT22;6553;48.412;9.514;2023-03-14T05:03:49;19.40;52.80
12977;DHT22;6553;48.412;9.514;2023-03-14T05:06:31;19.40;52.80
12977;DHT22;6553;48.412;9.514;2023-03-14T05:09:06;19.40;52.80
12977;DHT22;6553;48.412;9.514;2023-03-14T05:12:04;19.40;52.80
12977;DHT22;6553;48.412;9.514;2023-03-14T05:14:53;19.40;52.80
12977;DHT22;6553;48.412;9.514;2023-03-14T05:17:48;19.40;52.80
12977;DHT22;6553;48.412;9.514;2023-03-14T05:20:35;19.40;52.80
12977;DHT22;6553;48.412;9.514;2023-03-14T05:23:25;19.40;52.80
12977;DHT22;6553;48.412;9.514;2023-03-14T05:26:02;19.40;53.40
12977;DHT22;6553;48.412;9.514;2023-03-14T05:28:37;19.40;52.80
12977;DHT22;6553;48.412;9.514;2023-03-14T05:31:17;19.40;52.80
12977;DHT22;6553;48.412;9.514;2023-03-14T05:34:01;19.40;52.80
12977;DHT22;6553;48.412;9.514;2023-03-14T05:36:36;19.40;52.80
12977;DHT22;6553;48.412;9.514;2023-03-14T05:39:12;19.40;52.80
12977;DHT22;6553;48.412;9.514;2023-03-14T05:41:41;19.40;52.80
12977;DHT22;6553;48.412;9.514;2023-03-14T05:44:24;19.30;52.70
12977;DHT22;6553;48.412;9.514;2023-03-14T05:47:10;19.40;52.80
12977;DHT22;6553;48.412;9.514;2023-03-14T05:49:47;19.40;52.80
12977;DHT22;6553;48.412;9.514;2023-03-14T05:52:12;19.40;52.80
12977;DHT22;6553;48.412;9.514;2023-03-14T05:55:00;19.40;52.80
12977;DHT22;6553;48.412;9.514;2023-03-14T05:57:44;19.30;52.70
12977;DHT22;6553;48.412;9.514;2023-03-14T06:00:10;19.30;52.70
12977;DHT22;6553;48.412;9.514;2023-03-14T06:02:47;19.30;52.70
12977;DHT22;6553;48.412;9.514;2023-03-14T06:05:23;19.30;52.70
12977;DHT22;6553;48.412;9.514;2023-03-14T06:07:56;19.40;53.40
12977;DHT22;6553;48.412;9.514;2023-03-14T06:10:22;19.40;52.80
12977;DHT22;6553;48.412;9.514;2023-03-14T06:12:48;19.30;52.70
12977;DHT22;6553;48.412;9.514;2023-03-14T06:15:14;19.40;52.70
12977;DHT22;6553;48.412;9.514;2023-03-14T06:17:41;19.30;52.70
12977;DHT22;6553;48.412;9.514;2023-03-14T06:20:11;19.40;52.80
12977;DHT22;6553;48.412;9.514;2023-03-14T06:22:38;19.40;52.80
12977;DHT22;6553;48.412;9.514;2023-03-14T06:25:05;19.30;52.70
12977;DHT22;6553;48.412;9.514;2023-03-14T06:27:33;19.30;52.70
12977;DHT22;6553;48.412;9.514;2023-03-14T06:29:59;19.40;52.80
12977;DHT22;6553;48.412;9.514;2023-03-14T06:32:26;19.30;52.80
12977;DHT22;6553;48.412;9.514;2023-03-14T06:34:55;19.30;52.70
12977;DHT22;6553;48.412;9.514;2023-03-14T06:37:22;19.30;52.70
12977;DHT22;6553;48.412;9.514;2023-03-14T06:39:48;19.40;52.80
12977;DHT22;6553;48.412;9.514;2023-03-14T06:42:26;19.30;52.70
12977;DHT22;6553;48.412;9.514;2023-03-14T06:44:53;19.30;52.80
12977;DHT22;6553;48.412;9.514;2023-03-14T06:47:19;19.40;52.80
12977;DHT22;6553;48.412;9.514;2023-03-14T06:49:45;19.30;52.70
12977;DHT22;6553;48.412;9.514;2023-03-14T06:52:12;19.40;52.80
12977;DHT22;6553;48.412;9.514;2023-03-14T06:54:38;19.30;52.70
12977;DHT22;6553;48.412;9.514;2023-03-14T06:57:03;19.30;52.70
12977;DHT22;6553;48.412;9.514;2023-03-14T06:59:30;19.40;52.80
12977;DHT22;6553;48.412;9.514;2023-03-14T07:01:56;19.30;52.70
12977;DHT22;6553;48.412;9.514;2023-03-14T07:04:22;19.30;52.60
12977;DHT22;6553;48.412;9.514;2023-03-14T07:06:48;19.30;52.60
12977;DHT22;6553;48.412;9.514;2023-03-14T07:09:14;19.30;52.70
12977;DHT22;6553;48.412;9.514;2023-03-14T07:11:48;19.40;52.80
12977;DHT22;6553;48.412;9.514;2023-03-14T07:14:16;19.30;52.60
12977;DHT22;6553;48.412;9.514;2023-03-14T07:16:42;19.30;52.70
12977;DHT22;6553;48.412;9.514;2023-03-14T07:19:08;19.40;52.70
12977;DHT22;6553;48.412;9.514;2023-03-14T07:21:35;19.30;52.60
12977;DHT22;6553;48.412;9.514;2023-03-14T07:24:05;19.30;52.60
12977;DHT22;6553;48.412;9.514;2023-03-14T07:26:32;19.40;52.70
12977;DHT22;6553;48.412;9.514;2023-03-14T07:28:59;19.40;52.80
12977;DHT22;6553;48.412;9.514;2023-03-14T07:31:25;19.40;52.70
12977;DHT22;6553;48.412;9.514;2023-03-14T07:33:52;19.30;52.60
12977;DHT22;6553;48.412;9.514;2023-03-14T07:36:19;19.40;52.70
12977;DHT22;6553;48.412;9.514;2023-03-14T07:38:46;19.40;52.70
12977;DHT22;6553;48.412;9.514;2023-03-14T07:41:31;19.40;52.70
12977;DHT22;6553;48.412;9.514;2023-03-14T07:44:16;19.40;52.60
12977;DHT22;6553;48.412;9.514;2023-03-14T07:46:42;19.50;52.70
12977;DHT22;6553;48.412;9.514;2023-03-14T07:49:08;19.50;52.70
12977;DHT22;6553;48.412;9.514;2023-03-14T07:51:33;19.50;52.60
12977;DHT22;6553;48.412;9.514;2023-03-14T07:53:59;19.50;52.60
12977;DHT22;6553;48.412;9.514;2023-03-14T07:56:25;19.50;52.50
12977;DHT22;6553;48.412;9.514;2023-03-14T07:58:51;19.60;52.50
12977;DHT22;6553;48.412;9.514;2023-03-14T08:01:17;19.60;52.50
12977;DHT22;6553;48.412;9.514;2023-03-14T08:03:43;19.60;52.40
12977;DHT22;6553;48.412;9.514;2023-03-14T08:06:09;19.60;52.40
12977;DHT22;6553;48.412;9.514;2023-03-14T08:08:34;19.60;52.50
12977;DHT22;6553;48.412;9.514;2023-03-14T08:11:05;19.60;52.50
12977;DHT22;6553;48.412;9.514;2023-03-14T08:13:31;19.60;52.50
12977;DHT22;6553;48.412;9.514;2023-03-14T08:15:57;19.60;53.10
12977;DHT22;6553;48.412;9.514;2023-03-14T08:18:23;19.60;52.50
12977;DHT22;6553;48.412;9.514;2023-03-14T08:20:49;19.60;52.50
12977;DHT22;6553;48.412;9.514;2023-03-14T08:23:15;19.60;52.40
12977;DHT22;6553;48.412;9.514;2023-03-14T08:25:40;19.60;52.50
12977;DHT22;6553;48.412;9.514;2023-03-14T08:28:06;19.60;52.50
12977;DHT22;6553;48.412;9.514;2023-03-14T08:30:32;19.60;52.60
12977;DHT22;6553;48.412;9.514;2023-03-14T08:32:58;19.60;52.50
12977;DHT22;6553;48.412;9.514;2023-03-14T08:35:25;19.60;52.50
12977;DHT22;6553;48.412;9.514;2023-03-14T08:37:51;19.60;52.50
12977;DHT22;6553;48.412;9.514;2023-03-14T08:40:18;19.60;53.00
12977;DHT22;6553;48.412;9.514;2023-03-14T08:42:45;19.60;52.50
12977;DHT22;6553;48.412;9.514;2023-03-14T08:45:12;19.60;52.50
12977;DHT22;6553;48.412;9.514;2023-03-14T08:47:40;19.60;52.50
12977;DHT22;6553;48.412;9.514;2023-03-14T08:50:06;19.60;52.50
12977;DHT22;6553;48.412;9.514;2023-03-14T08:52:33;19.60;52.50
12977;DHT22;6553;48.412;9.514;2023-03-14T08:54:59;19.60;53.20
12977;DHT22;6553;48.412;9.514;2023-03-14T08:57:25;19.60;52.60
12977;DHT22;6553;48.412;9.514;2023-03-14T08:59:57;19.60;52.60
12977;DHT22;6553;48.412;9.514;2023-03-14T09:02:24;19.50;52.50
12977;DHT22;6553;48.412;9.514;2023-03-14T09:04:51;19.50;52.60
12977;DHT22;6553;48.412;9.514;2023-03-14T09:07:18;19.50;52.50
12977;DHT22;6553;48.412;9.514;2023-03-14T09:09:44;19.50;52.50
12977;DHT22;6553;48.412;9.514;2023-03-14T09:12:10;19.50;52.50
12977;DHT22;6553;48.412;9.514;2023-03-14T09:14:37;19.60;52.60
12977;DHT22;6553;48.412;9.514;2023-03-14T09:17:03;19.50;52.50
12977;DHT22;6553;48.412;9.514;2023-03-14T09:19:30;19.60;52.60
12977;DHT22;6553;48.412;9.514;2023-03-14T09:21:56;19.60;52.60
12977;DHT22;6553;48.412;9.514;2023-03-14T09:24:21;19.60;52.60
12977;DHT22;6553;48.412;9.514;2023-03-14T09:26:47;19.60;52.60
12977;DHT22;6553;48.412;9.514;2023-03-14T09:29:13;19.60;52.60
12977;DHT22;6553;48.412;9.514;2023-03-14T09:31:39;19.60;52.60
12977;DHT22;6553;48.412;9.514;2023-03-14T09:34:05;19.60;52.60
12977;DHT22;6553;48.412;9.514;2023-03-14T09:38:58;19.60;52.60
12977;DHT22;6553;48.412;9.514;2023-03-14T09:41:33;19.60;52.60
12977;DHT22;6553;48.412;9.514;2023-03-14T09:44:08;19.60;52.60
12977;DHT22;6553;48.412;9.514;2023-03-14T09:46:39;19.60;52.60
12977;DHT22;6553;48.412;9.514;2023-03-14T09:49:11;19.60;52.70
12977;DHT22;6553;48.412;9.514;2023-03-14T09:51:45;19.60;52.60
12977;DHT22;6553;48.412;9.514;2023-03-14T09:54:28;19.60;52.60
12977;DHT22;6553;48.412;9.514;2023-03-14T09:56:57;19.60;52.60
12977;DHT22;6553;48.412;9.514;2023-03-14T09:59:23;19.60;52.60
12977;DHT22;6553;48.412;9.514;2023-03-14T10:01:49;19.60;52.60
12977;DHT22;6553;48.412;9.514;2023-03-14T10:04:21;19.60;52.60
12977;DHT22;6553;48.412;9.514;2023-03-14T10:06:51;19.60;53.20
12977;DHT22;6553;48.412;9.514;2023-03-14T10:09:22;19.60;52.60
12977;DHT22;6553;48.412;9.514;2023-03-14T10:11:56;19.60;52.50
12977;DHT22;6553;48.412;9.514;2023-03-14T10:14:33;19.60;52.60
12977;DHT22;6553;48.412;9.514;2023-03-14T10:17:11;19.60;52.50
12977;DHT22;6553;48.412;9.514;2023-03-14T10:19:59;19.60;52.60
12977;DHT22;6553;48.412;9.514;2023-03-14T10:22:32;19.60;52.60
12977;DHT22;6553;48.412;9.514;2023-03-14T10:25:04;19.60;52.60
12977;DHT22;6553;48.412;9.514;2023-03-14T10:27:35;19.60;52.60
12977;DHT22;6553;48.412;9.514;2023-03-14T10:30:05;19.60;52.60
12977;DHT22;6553;48.412;9.514;2023-03-14T10:32:38;19.60;52.60
12977;DHT22;6553;48.412;9.514;2023-03-14T10:38:00;19.60;52.60
12977;DHT22;6553;48.412;9.514;2023-03-14T10:40:40;19.60;52.70
12977;DHT22;6553;48.412;9.514;2023-03-14T10:43:18;19.70;52.90
12977;DHT22;6553;48.412;9.514;2023-03-14T10:46:09;19.70;52.90
12977;DHT22;6553;48.412;9.514;2023-03-14T10:48:59;19.60;52.80
12977;DHT22;6553;48.412;9.514;2023-03-14T10:51:30;19.60;52.90
12977;DHT22;6553;48.412;9.514;2023-03-14T10:53:57;19.60;52.80
12977;DHT22;6553;48.412;9.514;2023-03-14T10:56:25;19.60;52.80
12977;DHT22;6553;48.412;9.514;2023-03-14T10:58:57;19.60;52.80
12977;DHT22;6553;48.412;9.514;2023-03-14T11:07:38;19.60;52.70
12977;DHT22;6553;48.412;9.514;2023-03-14T11:10:26;19.60;52.70
12977;DHT22;6553;48.412;9.514;2023-03-14T11:13:16;19.70;52.80
12977;DHT22;6553;48.412;9.514;2023-03-14T11:21:41;19.70;52.80
12977;DHT22;6553;48.412;9.514;2023-03-14T11:24:33;19.70;52.80
12977;DHT22;6553;48.412;9.514;2023-03-14T11:27:34;19.60;52.80
12977;DHT22;6553;48.412;9.514;2023-03-14T11:30:31;19.60;52.80
12977;DHT22;6553;48.412;9.514;2023-03-14T11:33:22;19.60;52.80
12977;DHT22;6553;48.412;9.514;2023-03-14T11:36:03;19.60;52.90
12977;DHT22;6553;48.412;9.514;2023-03-14T11:38:50;19.70;52.90
12977;DHT22;6553;48.412;9.514;2023-03-14T11:41:40;19.60;52.90
12977;DHT22;6553;48.412;9.514;2023-03-14T11:44:19;19.60;52.90
12977;DHT22;6553;48.412;9.514;2023-03-14T11:47:03;19.60;52.90
12977;DHT22;6553;48.412;9.514;2023-03-14T11:49:46;19.60;53.00
12977;DHT22;6553;48.412;9.514;2023-03-14T11:52:21;19.60;52.90
12977;DHT22;6553;48.412;9.514;2023-03-14T11:54:55;19.60;53.00
12977;DHT22;6553;48.412;9.514;2023-03-14T11:57:28;19.60;52.90
12977;DHT22;6553;48.412;9.514;2023-03-14T12:00:22;19.60;53.00
12977;DHT22;6553;48.412;9.514;2023-03-14T12:03:01;19.60;53.00
12977;DHT22;6553;48.412;9.514;2023-03-14T12:08:29;19.60;53.00
12977;DHT22;6553;48.412;9.514;2023-03-14T12:11:52;19.60;53.00
12977;DHT22;6553;48.412;9.514;2023-03-14T12:14:27;19.60;53.00
12977;DHT22;6553;48.412;9.514;2023-03-14T12:19:34;19.50;53.00
12977;DHT22;6553;48.412;9.514;2023-03-14T12:24:53;19.50;53.00
12977;DHT22;6553;48.412;9.514;2023-03-14T12:27:49;19.50;53.10
12977;DHT22;6553;48.412;9.514;2023-03-14T12:30:36;19.60;53.30
12977;DHT22;6553;48.412;9.514;2023-03-14T12:33:26;19.60;53.30
12977;DHT22;6553;48.412;9.514;2023-03-14T12:36:01;19.50;53.20
12977;DHT22;6553;48.412;9.514;2023-03-14T12:43:43;19.60;53.30
12977;DHT22;6553;48.412;9.514;2023-03-14T12:51:29;19.50;53.30
12977;DHT22;6553;48.412;9.514;2023-03-14T12:54:35;19.50;53.20
12977;DHT22;6553;48.412;9.514;2023-03-14T13:00:30;19.50;53.30
12977;DHT22;6553;48.412;9.514;2023-03-14T13:03:18;19.50;53.20
12977;DHT22;6553;48.412;9.514;2023-03-14T13:06:01;19.50;53.20
12977;DHT22;6553;48.412;9.514;2023-03-14T13:08:44;19.50;53.10
12977;DHT22;6553;48.412;9.514;2023-03-14T13:11:19;19.50;53.20
12977;DHT22;6553;48.412;9.514;2023-03-14T13:13:48;19.50;53.10
12977;DHT22;6553;48.412;9.514;2023-03-14T13:16:20;19.50;53.10
12977;DHT22;6553;48.412;9.514;2023-03-14T13:18:48;19.50;53.10
12977;DHT22;6553;48.412;9.514;2023-03-14T13:21:17;19.50;53.10
12977;DHT22;6553;48.412;9.514;2023-03-14T13:24:06;19.50;53.10
12977;DHT22;6553;48.412;9.514;2023-03-14T13:26:44;19.60;53.10
12977;DHT22;6553;48.412;9.514;2023-03-14T13:29:23;19.60;53.10
12977;DHT22;6553;48.412;9.514;2023-03-14T13:31:52;19.50;53.00
12977;DHT22;6553;48.412;9.514;2023-03-14T13:34:28;19.50;53.00
12977;DHT22;6553;48.412;9.514;2023-03-14T13:36:56;19.50;53.00
12977;DHT22;6553;48.412;9.514;2023-03-14T13:39:24;19.50;53.10
12977;DHT22;6553;48.412;9.514;2023-03-14T13:41:53;19.50;53.10
12977;DHT22;6553;48.412;9.514;2023-03-14T13:44:33;19.50;53.50
12977;DHT22;6553;48.412;9.514;2023-03-14T13:47:03;19.50;53.10
12977;DHT22;6553;48.412;9.514;2023-03-14T13:49:33;19.50;53.20
12977;DHT22;6553;48.412;9.514;2023-03-14T13:52:02;19.50;53.10
12977;DHT22;6553;48.412;9.514;2023-03-14T13:54:31;19.50;53.10
12977;DHT22;6553;48.412;9.514;2023-03-14T13:57:05;19.50;53.10
12977;DHT22;6553;48.412;9.514;2023-03-14T13:59:34;19.50;53.00
12977;DHT22;6553;48.412;9.514;2023-03-14T14:02:12;19.50;53.10
12977;DHT22;6553;48.412;9.514;2023-03-14T14:04:39;19.50;53.00
12977;DHT22;6553;48.412;9.514;2023-03-14T14:07:12;19.50;53.00
12977;DHT22;6553;48.412;9.514;2023-03-14T14:09:47;19.50;53.00
12977;DHT22;6553;48.412;9.514;2023-03-14T14:12:17;19.50;53.00
12977;DHT22;6553;48.412;9.514;2023-03-14T14:15:04;19.50;53.50
12977;DHT22;6553;48.412;9.514;2023-03-14T14:20:43;19.50;53.10
12977;DHT22;6553;48.412;9.514;2023-03-14T14:23:13;19.50;53.20
12977;DHT22;6553;48.412;9.514;2023-03-14T14:25:54;19.50;53.00
12977;DHT22;6553;48.412;9.514;2023-03-14T14:31:21;19.50;53.20
12977;DHT22;6553;48.412;9.514;2023-03-14T14:41:32;19.50;53.00
12977;DHT22;6553;48.412;9.514;2023-03-14T14:44:03;19.50;53.00
12977;DHT22;6553;48.412;9.514;2023-03-14T14:46:32;19.50;53.00
12977;DHT22;6553;48.412;9.514;2023-03-14T14:49:13;19.50;53.00
12977;DHT22;6553;48.412;9.514;2023-03-14T14:51:48;19.50;52.90
12977;DHT22;6553;48.412;9.514;2023-03-14T14:54:16;19.40;52.90
12977;DHT22;6553;48.412;9.514;2023-03-14T14:56:51;19.40;52.90
12977;DHT22;6553;48.412;9.514;2023-03-14T14:59:24;19.50;53.00
12977;DHT22;6553;48.412;9.514;2023-03-14T15:01:58;19.40;52.90
12977;DHT22;6553;48.412;9.514;2023-03-14T15:04:25;19.40;52.90
12977;DHT22;6553;48.412;9.514;2023-03-14T15:06:52;19.40;52.80
12977;DHT22;6553;48.412;9.514;2023-03-14T15:09:19;19.40;52.80
12977;DHT22;6553;48.412;9.514;2023-03-14T15:11:46;19.50;53.00
12977;DHT22;6553;48.412;9.514;2023-03-14T15:14:13;19.50;52.90
12977;DHT22;6553;48.412;9.514;2023-03-14T15:16:39;19.50;52.90
12977;DHT22;6553;48.412;9.514;2023-03-14T15:19:21;19.50;52.90
12977;DHT22;6553;48.412;9.514;2023-03-14T15:21:50;19.40;52.80
12977;DHT22;6553;48.412;9.514;2023-03-14T15:24:17;19.40;52.80
12977;DHT22;6553;48.412;9.514;2023-03-14T15:26:42;19.40;52.80
12977;DHT22;6553;48.412;9.514;2023-03-14T15:29:11;19.50;52.80
12977;DHT22;6553;48.412;9.514;2023-03-14T15:31:39;19.40;52.80
12977;DHT22;6553;48.412;9.514;2023-03-14T15:34:05;19.40;52.70
12977;DHT22;6553;48.412;9.514;2023-03-14T15:36:33;19.40;52.80
12977;DHT22;6553;48.412;9.514;2023-03-14T15:39:01;19.40;52.70
12977;DHT22;6553;48.412;9.514;2023-03-14T15:41:28;19.50;52.80
12977;DHT22;6553;48.412;9.514;2023-03-14T15:43:55;19.40;52.70
12977;DHT22;6553;48.412;9.514;2023-03-14T15:46:21;19.40;52.70
12977;DHT22;6553;48.412;9.514;2023-03-14T15:48:51;19.40;52.70
12977;DHT22;6553;48.412;9.514;2023-03-14T15:51:18;19.40;52.70
12977;DHT22;6553;48.412;9.514;2023-03-14T15:53:44;19.50;52.70
12977;DHT22;6553;48.412;9.514;2023-03-14T15:56:15;19.50;52.70
12977;DHT22;6553;48.412;9.514;2023-03-14T15:58:43;19.40;52.50
12977;DHT22;6553;48.412;9.514;2023-03-14T16:01:13;19.50;52.70
12977;DHT22;6553;48.412;9.514;2023-03-14T16:03:41;19.40;52.60
12977;DHT22;6553;48.412;9.514;2023-03-14T16:06:09;19.40;52.60
12977;DHT22;6553;48.412;9.514;2023-03-14T16:08:35;19.40;52.50
12977;DHT22;6553;48.412;9.514;2023-03-14T16:11:01;19.40;52.50
12977;DHT22;6553;48.412;9.514;2023-03-14T16:13:27;19.40;52.60
12977;DHT22;6553;48.412;9.514;2023-03-14T16:16:01;19.40;52.50
12977;DHT22;6553;48.412;9.514;2023-03-14T16:18:31;19.40;52.50
12977;DHT22;6553;48.412;9.514;2023-03-14T16:21:01;19.40;52.60
12977;DHT22;6553;48.412;9.514;2023-03-14T16:23:31;19.40;52.60
12977;DHT22;6553;48.412;9.514;2023-03-14T16:25:57;19.40;52.50
12977;DHT22;6553;48.412;9.514;2023-03-14T16:28:24;19.40;52.50
12977;DHT22;6553;48.412;9.514;2023-03-14T16:30:51;19.40;52.50
12977;DHT22;6553;48.412;9.514;2023-03-14T16:33:17;19.40;52.50
12977;DHT22;6553;48.412;9.514;2023-03-14T16:35:59;19.30;52.40
12977;DHT22;6553;48.412;9.514;2023-03-14T16:38:26;19.30;52.40
12977;DHT22;6553;48.412;9.514;2023-03-14T16:43:23;19.30;52.40
12977;DHT22;6553;48.412;9.514;2023-03-14T16:45:49;19.30;52.40
12977;DHT22;6553;48.412;9.514;2023-03-14T16:48:15;19.30;52.40
12977;DHT22;6553;48.412;9.514;2023-03-14T16:50:41;19.30;52.40
12977;DHT22;6553;48.412;9.514;2023-03-14T16:53:07;19.30;52.40
12977;DHT22;6553;48.412;9.514;2023-03-14T16:55:33;19.40;52.50
12977;DHT22;6553;48.412;9.514;2023-03-14T16:57:59;19.30;52.40
12977;DHT22;6553;48.412;9.514;2023-03-14T17:00:25;19.30;52.30
12977;DHT22;6553;48.412;9.514;2023-03-14T17:02:51;19.30;52.40
12977;DHT22;6553;48.412;9.514;2023-03-14T17:05:16;19.30;52.40
12977;DHT22;6553;48.412;9.514;2023-03-14T17:07:42;19.30;52.40
12977;DHT22;6553;48.412;9.514;2023-03-14T17:10:08;19.30;52.40
12977;DHT22;6553;48.412;9.514;2023-03-14T17:12:35;19.30;52.30
12977;DHT22;6553;48.412;9.514;2023-03-14T17:15:01;19.30;52.30
12977;DHT22;6553;48.412;9.514;2023-03-14T17:17:27;19.30;52.30
12977;DHT22;6553;48.412;9.514;2023-03-14T17:19:53;19.30;52.30
12977;DHT22;6553;48.412;9.514;2023-03-14T17:22:18;19.30;52.20